sensor_id;sensor_type;location;lat;lon;timestamp;P1;durP1;ratioP1;P2;durP2;ratioP2
53267;SDS011;39156;51.176;6.738;2024-02-26T00:02:16;44.55;;;42.35;;
53267;SDS011;39156;51.176;6.738;2024-02-26T00:04:43;43.55;;;41.25;;
53267;SDS011;39156;51.176;6.738;2024-02-26T00:07:10;42.13;;;40.03;;
53267;SDS011;39156;51.176;6.738;2024-02-26T00:09:37;43.47;;;41.17;;
53267;SDS011;39156;51.176;6.738;2024-02-26T00:12:04;44.95;;;42.55;;
53267;SDS011;39156;51.176;6.738;2024-02-26T00:14:31;43.13;;;40.92;;
53267;SDS011;39156;51.176;6.738;2024-02-26T00:16:58;44.17;;;41.92;;
53267;SDS011;39156;51.176;6.738;2024-02-26T00:21:53;44.70;;;42.38;;
53267;SDS011;39156;51.176;6.738;2024-02-26T00:24:20;42.72;;;40.33;;
53267;SDS011;39156;51.176;6.738;2024-02-26T00:26:47;44.55;;;42.25;;
53267;SDS011;39156;51.176;6.738;2024-02-26T00:29:18;44.10;;;41.72;;
53267;SDS011;39156;51.176;6.738;2024-02-26T00:31:44;44.00;;;41.70;;
53267;SDS011;39156;51.176;6.738;2024-02-26T00:34:11;44.42;;;42.13;;
53267;SDS011;39156;51.176;6.738;2024-02-26T00:36:40;45.25;;;42.90;;
53267;SDS011;39156;51.176;6.738;2024-02-26T00:39:06;45.80;;;43.50;;
53267;SDS011;39156;51.176;6.738;2024-02-26T00:41:37;45.35;;;43.03;;
53267;SDS011;39156;51.176;6.738;2024-02-26T00:44:06;41.78;;;39.60;;
53267;SDS011;39156;51.176;6.738;2024-02-26T00:46:33;44.35;;;42.08;;
53267;SDS011;39156;51.176;6.738;2024-02-26T00:49:00;41.80;;;39.70;;
53267;SDS011;39156;51.176;6.738;2024-02-26T00:51:27;43.80;;;41.60;;
53267;SDS011;39156;51.176;6.738;2024-02-26T00:53:56;43.58;;;41.28;;
53267;SDS011;39156;51.176;6.738;2024-02-26T00:56:22;41.88;;;39.78;;
53267;SDS011;39156;51.176;6.738;2024-02-26T00:58:49;43.30;;;41.00;;
53267;SDS011;39156;51.176;6.738;2024-02-26T01:01:16;43.72;;;41.42;;
53267;SDS011;39156;51.176;6.738;2024-02-26T01:03:43;42.80;;;40.65;;
53267;SDS011;39156;51.176;6.738;2024-02-26T01:06:10;42.80;;;40.60;;
53267;SDS011;39156;51.176;6.738;2024-02-26T01:08:37;44.08;;;41.88;;
53267;SDS011;39156;51.176;6.738;2024-02-26T01:11:05;42.97;;;40.78;;
53267;SDS011;39156;51.176;6.738;2024-02-26T01:13:32;43.88;;;41.67;;
53267;SDS011;39156;51.176;6.738;2024-02-26T01:15:59;43.78;;;41.58;;
53267;SDS011;39156;51.176;6.738;2024-02-26T01:18:26;42.63;;;40.42;;
53267;SDS011;39156;51.176;6.738;2024-02-26T01:20:53;43.08;;;40.92;;
53267;SDS011;39156;51.176;6.738;2024-02-26T01:23:20;42.83;;;40.00;;
53267;SDS011;39156;51.176;6.738;2024-02-26T01:25:47;41.45;;;39.35;;
53267;SDS011;39156;51.176;6.738;2024-02-26T01:30:42;45.05;;;42.72;;
53267;SDS011;39156;51.176;6.738;2024-02-26T01:33:09;43.97;;;41.78;;
53267;SDS011;39156;51.176;6.738;2024-02-26T01:35:36;41.80;;;39.65;;
53267;SDS011;39156;51.176;6.738;2024-02-26T01:38:03;44.88;;;42.58;;
53267;SDS011;39156;51.176;6.738;2024-02-26T01:40:30;43.03;;;40.83;;
53267;SDS011;39156;51.176;6.738;2024-02-26T01:42:58;46.22;;;43.88;;
53267;SDS011;39156;51.176;6.738;2024-02-26T01:45:27;43.28;;;40.97;;
53267;SDS011;39156;51.176;6.738;2024-02-26T01:47:54;44.10;;;41.90;;
53267;SDS011;39156;51.176;6.738;2024-02-26T01:50:22;42.70;;;40.50;;
53267;SDS011;39156;51.176;6.738;2024-02-26T01:52:50;44.83;;;42.55;;
53267;SDS011;39156;51.176;6.738;2024-02-26T01:55:17;44.25;;;41.95;;
53267;SDS011;39156;51.176;6.738;2024-02-26T01:57:45;43.85;;;41.58;;
53267;SDS011;39156;51.176;6.738;2024-02-26T02:00:16;42.33;;;40.22;;
53267;SDS011;39156;51.176;6.738;2024-02-26T02:02:46;44.42;;;42.20;;
53267;SDS011;39156;51.176;6.738;2024-02-26T02:05:14;43.30;;;41.05;;
53267;SDS011;39156;51.176;6.738;2024-02-26T02:07:43;41.78;;;39.60;;
53267;SDS011;39156;51.176;6.738;2024-02-26T02:10:10;43.22;;;41.03;;
53267;SDS011;39156;51.176;6.738;2024-02-26T02:12:37;42.42;;;40.33;;
53267;SDS011;39156;51.176;6.738;2024-02-26T02:15:05;42.63;;;40.53;;
53267;SDS011;39156;51.176;6.738;2024-02-26T02:17:33;42.85;;;40.55;;
53267;SDS011;39156;51.176;6.738;2024-02-26T02:24:58;43.30;;;40.95;;
53267;SDS011;39156;51.176;6.738;2024-02-26T02:27:25;42.58;;;40.38;;
53267;SDS011;39156;51.176;6.738;2024-02-26T02:29:52;43.65;;;41.45;;
53267;SDS011;39156;51.176;6.738;2024-02-26T02:32:19;42.72;;;40.33;;
53267;SDS011;39156;51.176;6.738;2024-02-26T02:34:47;43.67;;;41.47;;
53267;SDS011;39156;51.176;6.738;2024-02-26T02:37:14;43.63;;;41.42;;
53267;SDS011;39156;51.176;6.738;2024-02-26T02:39:42;43.97;;;41.58;;
53267;SDS011;39156;51.176;6.738;2024-02-26T02:42:09;42.97;;;40.78;;
53267;SDS011;39156;51.176;6.738;2024-02-26T02:44:38;43.60;;;41.15;;
53267;SDS011;39156;51.176;6.738;2024-02-26T02:47:05;43.42;;;41.13;;
53267;SDS011;39156;51.176;6.738;2024-02-26T02:49:31;45.65;;;43.35;;
53267;SDS011;39156;51.176;6.738;2024-02-26T02:51:58;42.97;;;40.72;;
53267;SDS011;39156;51.176;6.738;2024-02-26T02:54:26;42.60;;;40.40;;
53267;SDS011;39156;51.176;6.738;2024-02-26T02:56:54;44.85;;;42.65;;
53267;SDS011;39156;51.176;6.738;2024-02-26T02:59:21;42.42;;;40.25;;
53267;SDS011;39156;51.176;6.738;2024-02-26T03:01:47;44.17;;;41.92;;
53267;SDS011;39156;51.176;6.738;2024-02-26T03:04:14;44.65;;;42.30;;
53267;SDS011;39156;51.176;6.738;2024-02-26T03:06:41;42.38;;;40.22;;
53267;SDS011;39156;51.176;6.738;2024-02-26T03:09:08;44.50;;;41.90;;
53267;SDS011;39156;51.176;6.738;2024-02-26T03:11:35;43.80;;;41.60;;
53267;SDS011;39156;51.176;6.738;2024-02-26T03:14:03;43.15;;;40.95;;
53267;SDS011;39156;51.176;6.738;2024-02-26T03:16:30;43.63;;;41.22;;
53267;SDS011;39156;51.176;6.738;2024-02-26T03:18:57;45.20;;;42.85;;
53267;SDS011;39156;51.176;6.738;2024-02-26T03:21:24;43.85;;;41.45;;
53267;SDS011;39156;51.176;6.738;2024-02-26T03:23:51;44.47;;;42.15;;
53267;SDS011;39156;51.176;6.738;2024-02-26T03:26:18;43.75;;;41.50;;
53267;SDS011;39156;51.176;6.738;2024-02-26T03:28:46;45.92;;;43.63;;
53267;SDS011;39156;51.176;6.738;2024-02-26T03:31:14;43.55;;;41.25;;
53267;SDS011;39156;51.176;6.738;2024-02-26T03:33:41;43.45;;;41.25;;
53267;SDS011;39156;51.176;6.738;2024-02-26T03:36:08;43.72;;;41.50;;
53267;SDS011;39156;51.176;6.738;2024-02-26T03:38:35;43.95;;;41.75;;
53267;SDS011;39156;51.176;6.738;2024-02-26T03:41:03;43.40;;;41.10;;
53267;SDS011;39156;51.176;6.738;2024-02-26T03:43:30;44.47;;;42.17;;
53267;SDS011;39156;51.176;6.738;2024-02-26T03:45:56;45.25;;;42.75;;
53267;SDS011;39156;51.176;6.738;2024-02-26T03:48:25;45.30;;;43.10;;
53267;SDS011;39156;51.176;6.738;2024-02-26T03:50:51;45.38;;;43.08;;
53267;SDS011;39156;51.176;6.738;2024-02-26T03:53:18;46.20;;;43.67;;
53267;SDS011;39156;51.176;6.738;2024-02-26T03:55:45;43.78;;;41.58;;
53267;SDS011;39156;51.176;6.738;2024-02-26T03:58:12;45.78;;;43.30;;
53267;SDS011;39156;51.176;6.738;2024-02-26T04:00:39;44.58;;;42.28;;
53267;SDS011;39156;51.176;6.738;2024-02-26T04:03:06;44.88;;;42.60;;
53267;SDS011;39156;51.176;6.738;2024-02-26T04:05:34;45.63;;;43.28;;
53267;SDS011;39156;51.176;6.738;2024-02-26T04:08:01;44.17;;;41.97;;
53267;SDS011;39156;51.176;6.738;2024-02-26T04:10:29;45.20;;;42.80;;
53267;SDS011;39156;51.176;6.738;2024-02-26T04:12:56;43.58;;;41.28;;
53267;SDS011;39156;51.176;6.738;2024-02-26T04:15:22;44.33;;;42.13;;
53267;SDS011;39156;51.176;6.738;2024-02-26T04:17:49;43.60;;;41.20;;
53267;SDS011;39156;51.176;6.738;2024-02-26T04:20:16;42.40;;;40.30;;
53267;SDS011;39156;51.176;6.738;2024-02-26T04:22:45;44.42;;;42.13;;
53267;SDS011;39156;51.176;6.738;2024-02-26T04:25:11;44.03;;;41.78;;
53267;SDS011;39156;51.176;6.738;2024-02-26T04:27:38;43.63;;;41.28;;
53267;SDS011;39156;51.176;6.738;2024-02-26T04:30:05;44.55;;;42.15;;
53267;SDS011;39156;51.176;6.738;2024-02-26T04:32:33;45.35;;;42.85;;
53267;SDS011;39156;51.176;6.738;2024-02-26T04:37:28;43.20;;;41.00;;
53267;SDS011;39156;51.176;6.738;2024-02-26T04:39:58;44.55;;;42.25;;
53267;SDS011;39156;51.176;6.738;2024-02-26T04:42:26;42.97;;;40.78;;
53267;SDS011;39156;51.176;6.738;2024-02-26T04:47:21;45.78;;;43.47;;
53267;SDS011;39156;51.176;6.738;2024-02-26T04:49:48;44.35;;;42.05;;
53267;SDS011;39156;51.176;6.738;2024-02-26T04:52:15;44.50;;;42.20;;
53267;SDS011;39156;51.176;6.738;2024-02-26T04:54:42;45.20;;;42.90;;
53267;SDS011;39156;51.176;6.738;2024-02-26T04:57:11;44.35;;;42.05;;
53267;SDS011;39156;51.176;6.738;2024-02-26T04:59:37;44.20;;;41.90;;
53267;SDS011;39156;51.176;6.738;2024-02-26T05:02:05;44.15;;;41.95;;
53267;SDS011;39156;51.176;6.738;2024-02-26T05:04:32;44.65;;;42.40;;
53267;SDS011;39156;51.176;6.738;2024-02-26T05:06:59;44.10;;;41.90;;
53267;SDS011;39156;51.176;6.738;2024-02-26T05:09:26;44.25;;;41.75;;
53267;SDS011;39156;51.176;6.738;2024-02-26T05:11:53;44.80;;;42.45;;
53267;SDS011;39156;51.176;6.738;2024-02-26T05:14:21;44.13;;;41.83;;
53267;SDS011;39156;51.176;6.738;2024-02-26T05:16:48;44.47;;;42.17;;
53267;SDS011;39156;51.176;6.738;2024-02-26T05:19:15;43.88;;;41.58;;
53267;SDS011;39156;51.176;6.738;2024-02-26T05:21:42;45.60;;;43.30;;
53267;SDS011;39156;51.176;6.738;2024-02-26T05:24:09;43.85;;;41.55;;
53267;SDS011;39156;51.176;6.738;2024-02-26T05:26:36;44.90;;;42.60;;
53267;SDS011;39156;51.176;6.738;2024-02-26T05:29:03;43.92;;;41.63;;
53267;SDS011;39156;51.176;6.738;2024-02-26T05:31:31;43.72;;;41.53;;
53267;SDS011;39156;51.176;6.738;2024-02-26T05:33:58;45.03;;;42.72;;
53267;SDS011;39156;51.176;6.738;2024-02-26T05:36:24;45.40;;;43.10;;
53267;SDS011;39156;51.176;6.738;2024-02-26T05:38:53;44.78;;;42.47;;
53267;SDS011;39156;51.176;6.738;2024-02-26T05:41:20;44.25;;;41.95;;
53267;SDS011;39156;51.176;6.738;2024-02-26T05:43:50;45.00;;;42.65;;
53267;SDS011;39156;51.176;6.738;2024-02-26T05:46:17;46.75;;;44.28;;
53267;SDS011;39156;51.176;6.738;2024-02-26T05:48:46;44.60;;;42.30;;
53267;SDS011;39156;51.176;6.738;2024-02-26T05:51:15;45.38;;;43.08;;
53267;SDS011;39156;51.176;6.738;2024-02-26T05:53:42;46.05;;;43.67;;
53267;SDS011;39156;51.176;6.738;2024-02-26T05:56:09;44.95;;;42.65;;
53267;SDS011;39156;51.176;6.738;2024-02-26T05:58:36;48.17;;;45.67;;
53267;SDS011;39156;51.176;6.738;2024-02-26T06:01:03;45.95;;;43.53;;
53267;SDS011;39156;51.176;6.738;2024-02-26T06:03:30;45.40;;;43.10;;
53267;SDS011;39156;51.176;6.738;2024-02-26T06:05:58;45.13;;;42.80;;
53267;SDS011;39156;51.176;6.738;2024-02-26T06:08:25;45.05;;;42.75;;
53267;SDS011;39156;51.176;6.738;2024-02-26T06:10:52;44.97;;;42.60;;
53267;SDS011;39156;51.176;6.738;2024-02-26T06:13:19;46.78;;;44.38;;
53267;SDS011;39156;51.176;6.738;2024-02-26T06:15:46;44.22;;;41.92;;
53267;SDS011;39156;51.176;6.738;2024-02-26T06:18:13;45.53;;;43.17;;
53267;SDS011;39156;51.176;6.738;2024-02-26T06:20:41;46.25;;;43.85;;
53267;SDS011;39156;51.176;6.738;2024-02-26T06:23:09;46.20;;;43.70;;
53267;SDS011;39156;51.176;6.738;2024-02-26T06:25:36;44.58;;;42.17;;
53267;SDS011;39156;51.176;6.738;2024-02-26T06:28:03;45.00;;;42.70;;
53267;SDS011;39156;51.176;6.738;2024-02-26T06:30:30;44.60;;;42.30;;
53267;SDS011;39156;51.176;6.738;2024-02-26T06:32:57;45.70;;;43.20;;
53267;SDS011;39156;51.176;6.738;2024-02-26T06:35:24;46.70;;;44.15;;
53267;SDS011;39156;51.176;6.738;2024-02-26T06:37:51;46.08;;;43.58;;
53267;SDS011;39156;51.176;6.738;2024-02-26T06:42:46;46.75;;;44.25;;
53267;SDS011;39156;51.176;6.738;2024-02-26T06:45:15;45.70;;;43.38;;
53267;SDS011;39156;51.176;6.738;2024-02-26T06:47:42;46.75;;;44.35;;
53267;SDS011;39156;51.176;6.738;2024-02-26T06:50:11;45.92;;;43.53;;
53267;SDS011;39156;51.176;6.738;2024-02-26T06:52:38;44.72;;;42.42;;
53267;SDS011;39156;51.176;6.738;2024-02-26T06:55:05;46.15;;;43.75;;
53267;SDS011;39156;51.176;6.738;2024-02-26T06:57:34;46.13;;;43.45;;
53267;SDS011;39156;51.176;6.738;2024-02-26T07:00:01;46.42;;;44.03;;
53267;SDS011;39156;51.176;6.738;2024-02-26T07:02:29;46.10;;;43.72;;
53267;SDS011;39156;51.176;6.738;2024-02-26T07:04:56;46.17;;;43.80;;
53267;SDS011;39156;51.176;6.738;2024-02-26T07:07:23;48.17;;;45.67;;
53267;SDS011;39156;51.176;6.738;2024-02-26T07:09:50;46.53;;;44.03;;
53267;SDS011;39156;51.176;6.738;2024-02-26T07:12:17;46.50;;;44.10;;
53267;SDS011;39156;51.176;6.738;2024-02-26T07:14:46;46.33;;;43.72;;
53267;SDS011;39156;51.176;6.738;2024-02-26T07:17:12;45.00;;;42.50;;
53267;SDS011;39156;51.176;6.738;2024-02-26T07:19:41;46.38;;;43.78;;
53267;SDS011;39156;51.176;6.738;2024-02-26T07:22:08;47.85;;;45.35;;
53267;SDS011;39156;51.176;6.738;2024-02-26T07:24:35;45.65;;;43.15;;
53267;SDS011;39156;51.176;6.738;2024-02-26T07:27:02;46.05;;;43.65;;
53267;SDS011;39156;51.176;6.738;2024-02-26T07:29:29;46.38;;;43.95;;
53267;SDS011;39156;51.176;6.738;2024-02-26T07:31:57;46.28;;;43.88;;
53267;SDS011;39156;51.176;6.738;2024-02-26T07:34:24;46.60;;;43.90;;
53267;SDS011;39156;51.176;6.738;2024-02-26T07:36:54;46.45;;;43.95;;
53267;SDS011;39156;51.176;6.738;2024-02-26T07:39:21;45.80;;;43.30;;
53267;SDS011;39156;51.176;6.738;2024-02-26T07:41:48;45.10;;;42.80;;
53267;SDS011;39156;51.176;6.738;2024-02-26T07:44:17;45.78;;;43.17;;
53267;SDS011;39156;51.176;6.738;2024-02-26T07:46:44;46.22;;;43.70;;
53267;SDS011;39156;51.176;6.738;2024-02-26T07:49:13;47.38;;;44.88;;
53267;SDS011;39156;51.176;6.738;2024-02-26T07:51:40;46.03;;;43.53;;
53267;SDS011;39156;51.176;6.738;2024-02-26T07:54:07;46.55;;;43.95;;
53267;SDS011;39156;51.176;6.738;2024-02-26T07:56:34;45.30;;;42.72;;
53267;SDS011;39156;51.176;6.738;2024-02-26T07:59:00;46.13;;;43.70;;
53267;SDS011;39156;51.176;6.738;2024-02-26T08:01:27;46.22;;;43.63;;
53267;SDS011;39156;51.176;6.738;2024-02-26T08:04:02;46.30;;;43.83;;
53267;SDS011;39156;51.176;6.738;2024-02-26T08:06:30;45.90;;;43.30;;
53267;SDS011;39156;51.176;6.738;2024-02-26T08:08:56;47.78;;;44.95;;
53267;SDS011;39156;51.176;6.738;2024-02-26T08:11:23;48.67;;;45.90;;
53267;SDS011;39156;51.176;6.738;2024-02-26T08:13:50;47.42;;;44.92;;
53267;SDS011;39156;51.176;6.738;2024-02-26T08:16:17;45.97;;;43.42;;
53267;SDS011;39156;51.176;6.738;2024-02-26T08:18:44;45.45;;;42.95;;
53267;SDS011;39156;51.176;6.738;2024-02-26T08:21:12;45.00;;;42.60;;
53267;SDS011;39156;51.176;6.738;2024-02-26T08:23:39;45.90;;;43.40;;
53267;SDS011;39156;51.176;6.738;2024-02-26T08:26:06;44.95;;;42.65;;
53267;SDS011;39156;51.176;6.738;2024-02-26T08:28:36;45.15;;;42.75;;
53267;SDS011;39156;51.176;6.738;2024-02-26T08:31:02;46.60;;;44.05;;
53267;SDS011;39156;51.176;6.738;2024-02-26T08:33:29;47.20;;;44.63;;
53267;SDS011;39156;51.176;6.738;2024-02-26T08:35:59;45.55;;;43.05;;
53267;SDS011;39156;51.176;6.738;2024-02-26T08:38:30;47.10;;;44.70;;
53267;SDS011;39156;51.176;6.738;2024-02-26T08:40:59;44.90;;;42.42;;
53267;SDS011;39156;51.176;6.738;2024-02-26T08:43:27;44.67;;;42.35;;
53267;SDS011;39156;51.176;6.738;2024-02-26T08:45:59;47.47;;;44.88;;
53267;SDS011;39156;51.176;6.738;2024-02-26T08:48:26;46.03;;;43.63;;
53267;SDS011;39156;51.176;6.738;2024-02-26T08:50:53;46.47;;;44.03;;
53267;SDS011;39156;51.176;6.738;2024-02-26T08:53:20;44.85;;;42.45;;
53267;SDS011;39156;51.176;6.738;2024-02-26T08:55:48;45.53;;;42.97;;
53267;SDS011;39156;51.176;6.738;2024-02-26T08:58:16;45.03;;;42.58;;
53267;SDS011;39156;51.176;6.738;2024-02-26T09:00:44;45.10;;;42.80;;
53267;SDS011;39156;51.176;6.738;2024-02-26T09:03:10;45.50;;;43.03;;
53267;SDS011;39156;51.176;6.738;2024-02-26T09:05:37;46.35;;;43.95;;
53267;SDS011;39156;51.176;6.738;2024-02-26T09:08:04;44.50;;;42.20;;
53267;SDS011;39156;51.176;6.738;2024-02-26T09:10:32;46.22;;;43.78;;
53267;SDS011;39156;51.176;6.738;2024-02-26T09:13:00;44.90;;;42.50;;
53267;SDS011;39156;51.176;6.738;2024-02-26T09:15:27;47.35;;;44.55;;
53267;SDS011;39156;51.176;6.738;2024-02-26T09:17:54;48.00;;;45.30;;
53267;SDS011;39156;51.176;6.738;2024-02-26T09:20:21;46.00;;;43.53;;
53267;SDS011;39156;51.176;6.738;2024-02-26T09:22:48;44.20;;;41.95;;
53267;SDS011;39156;51.176;6.738;2024-02-26T09:27:43;45.40;;;42.90;;
53267;SDS011;39156;51.176;6.738;2024-02-26T09:30:12;45.38;;;43.03;;
53267;SDS011;39156;51.176;6.738;2024-02-26T09:32:40;44.53;;;42.17;;
53267;SDS011;39156;51.176;6.738;2024-02-26T09:37:33;44.88;;;42.47;;
53267;SDS011;39156;51.176;6.738;2024-02-26T09:40:02;44.70;;;42.40;;
53267;SDS011;39156;51.176;6.738;2024-02-26T09:42:31;45.15;;;42.67;;
53267;SDS011;39156;51.176;6.738;2024-02-26T09:44:59;45.22;;;42.83;;
53267;SDS011;39156;51.176;6.738;2024-02-26T09:47:30;46.67;;;44.17;;
53267;SDS011;39156;51.176;6.738;2024-02-26T09:49:58;45.72;;;43.25;;
53267;SDS011;39156;51.176;6.738;2024-02-26T09:52:26;43.70;;;41.08;;
53267;SDS011;39156;51.176;6.738;2024-02-26T09:54:54;44.47;;;42.08;;
53267;SDS011;39156;51.176;6.738;2024-02-26T09:57:21;44.88;;;42.47;;
53267;SDS011;39156;51.176;6.738;2024-02-26T09:59:50;44.85;;;42.50;;
53267;SDS011;39156;51.176;6.738;2024-02-26T10:02:19;45.20;;;42.80;;
53267;SDS011;39156;51.176;6.738;2024-02-26T10:04:48;45.40;;;43.00;;
53267;SDS011;39156;51.176;6.738;2024-02-26T10:07:18;44.42;;;42.08;;
53267;SDS011;39156;51.176;6.738;2024-02-26T10:09:46;45.28;;;42.83;;
53267;SDS011;39156;51.176;6.738;2024-02-26T10:12:13;44.25;;;41.85;;
53267;SDS011;39156;51.176;6.738;2024-02-26T10:14:42;44.95;;;42.65;;
53267;SDS011;39156;51.176;6.738;2024-02-26T10:17:08;46.28;;;43.88;;
53267;SDS011;39156;51.176;6.738;2024-02-26T10:19:36;44.72;;;42.33;;
53267;SDS011;39156;51.176;6.738;2024-02-26T10:22:04;45.30;;;42.90;;
53267;SDS011;39156;51.176;6.738;2024-02-26T10:24:31;45.63;;;43.03;;
53267;SDS011;39156;51.176;6.738;2024-02-26T10:26:59;45.85;;;43.30;;
53267;SDS011;39156;51.176;6.738;2024-02-26T10:29:26;45.65;;;43.22;;
53267;SDS011;39156;51.176;6.738;2024-02-26T10:31:53;45.75;;;43.25;;
53267;SDS011;39156;51.176;6.738;2024-02-26T10:34:20;44.47;;;41.97;;
53267;SDS011;39156;51.176;6.738;2024-02-26T10:39:16;43.95;;;41.65;;
53267;SDS011;39156;51.176;6.738;2024-02-26T10:41:44;45.97;;;43.50;;
53267;SDS011;39156;51.176;6.738;2024-02-26T10:44:11;44.85;;;42.45;;
53267;SDS011;39156;51.176;6.738;2024-02-26T10:49:12;44.92;;;42.55;;
53267;SDS011;39156;51.176;6.738;2024-02-26T10:51:43;44.53;;;42.20;;
53267;SDS011;39156;51.176;6.738;2024-02-26T10:54:12;46.45;;;43.53;;
53267;SDS011;39156;51.176;6.738;2024-02-26T10:56:43;46.75;;;44.25;;
53267;SDS011;39156;51.176;6.738;2024-02-26T10:59:12;45.40;;;42.90;;
53267;SDS011;39156;51.176;6.738;2024-02-26T11:01:40;44.08;;;41.78;;
53267;SDS011;39156;51.176;6.738;2024-02-26T11:04:11;45.22;;;42.83;;
53267;SDS011;39156;51.176;6.738;2024-02-26T11:06:39;44.47;;;42.17;;
53267;SDS011;39156;51.176;6.738;2024-02-26T11:11:39;44.17;;;41.88;;
53267;SDS011;39156;51.176;6.738;2024-02-26T11:14:07;43.75;;;41.45;;
53267;SDS011;39156;51.176;6.738;2024-02-26T11:16:35;44.65;;;42.25;;
53267;SDS011;39156;51.176;6.738;2024-02-26T11:19:06;44.20;;;41.90;;
53267;SDS011;39156;51.176;6.738;2024-02-26T11:21:35;46.63;;;44.13;;
53267;SDS011;39156;51.176;6.738;2024-02-26T11:24:06;43.88;;;41.38;;
53267;SDS011;39156;51.176;6.738;2024-02-26T11:26:36;45.10;;;42.50;;
53267;SDS011;39156;51.176;6.738;2024-02-26T11:29:12;45.38;;;42.88;;
53267;SDS011;39156;51.176;6.738;2024-02-26T11:31:43;44.17;;;41.78;;
53267;SDS011;39156;51.176;6.738;2024-02-26T11:34:10;45.97;;;43.38;;
53267;SDS011;39156;51.176;6.738;2024-02-26T11:36:38;44.22;;;41.72;;
53267;SDS011;39156;51.176;6.738;2024-02-26T11:39:05;45.88;;;43.38;;
53267;SDS011;39156;51.176;6.738;2024-02-26T11:41:32;45.58;;;43.15;;
53267;SDS011;39156;51.176;6.738;2024-02-26T11:44:01;45.50;;;43.03;;
53267;SDS011;39156;51.176;6.738;2024-02-26T11:46:32;45.40;;;42.90;;
53267;SDS011;39156;51.176;6.738;2024-02-26T11:49:00;45.00;;;42.60;;
53267;SDS011;39156;51.176;6.738;2024-02-26T11:51:57;45.50;;;42.95;;
53267;SDS011;39156;51.176;6.738;2024-02-26T11:54:38;46.00;;;43.50;;
53267;SDS011;39156;51.176;6.738;2024-02-26T11:57:19;44.10;;;41.70;;
53267;SDS011;39156;51.176;6.738;2024-02-26T11:59:52;45.38;;;42.88;;
53267;SDS011;39156;51.176;6.738;2024-02-26T12:05:12;47.08;;;44.58;;
53267;SDS011;39156;51.176;6.738;2024-02-26T12:07:42;45.83;;;43.42;;
53267;SDS011;39156;51.176;6.738;2024-02-26T12:10:16;45.50;;;43.10;;
53267;SDS011;39156;51.176;6.738;2024-02-26T12:12:52;45.00;;;42.50;;
53267;SDS011;39156;51.176;6.738;2024-02-26T12:15:24;48.95;;;46.25;;
53267;SDS011;39156;51.176;6.738;2024-02-26T12:17:52;47.28;;;44.67;;
53267;SDS011;39156;51.176;6.738;2024-02-26T12:22:46;47.33;;;44.63;;
53267;SDS011;39156;51.176;6.738;2024-02-26T12:25:17;46.65;;;43.75;;
53267;SDS011;39156;51.176;6.738;2024-02-26T12:27:50;46.13;;;43.63;;
53267;SDS011;39156;51.176;6.738;2024-02-26T12:30:17;46.92;;;44.25;;
53267;SDS011;39156;51.176;6.738;2024-02-26T12:32:45;47.17;;;44.47;;
53267;SDS011;39156;51.176;6.738;2024-02-26T12:35:13;47.58;;;45.05;;
53267;SDS011;39156;51.176;6.738;2024-02-26T12:37:40;48.60;;;45.60;;
53267;SDS011;39156;51.176;6.738;2024-02-26T12:40:08;47.15;;;44.45;;
53267;SDS011;39156;51.176;6.738;2024-02-26T12:42:36;47.72;;;44.95;;
53267;SDS011;39156;51.176;6.738;2024-02-26T12:45:05;49.72;;;46.92;;
53267;SDS011;39156;51.176;6.738;2024-02-26T12:47:35;49.30;;;46.60;;
53267;SDS011;39156;51.176;6.738;2024-02-26T12:50:05;48.38;;;45.40;;
53267;SDS011;39156;51.176;6.738;2024-02-26T12:52:34;50.75;;;47.75;;
53267;SDS011;39156;51.176;6.738;2024-02-26T12:55:02;49.72;;;46.70;;
53267;SDS011;39156;51.176;6.738;2024-02-26T12:57:32;48.30;;;44.97;;
53267;SDS011;39156;51.176;6.738;2024-02-26T13:00:00;48.50;;;45.63;;
53267;SDS011;39156;51.176;6.738;2024-02-26T13:02:28;49.22;;;46.42;;
53267;SDS011;39156;51.176;6.738;2024-02-26T13:04:56;49.53;;;46.70;;
53267;SDS011;39156;51.176;6.738;2024-02-26T13:07:27;49.35;;;46.53;;
53267;SDS011;39156;51.176;6.738;2024-02-26T13:09:54;48.47;;;45.58;;
53267;SDS011;39156;51.176;6.738;2024-02-26T13:12:21;48.22;;;45.45;;
53267;SDS011;39156;51.176;6.738;2024-02-26T13:14:58;48.63;;;45.83;;
53267;SDS011;39156;51.176;6.738;2024-02-26T13:17:25;49.17;;;46.28;;
53267;SDS011;39156;51.176;6.738;2024-02-26T13:19:53;48.35;;;45.53;;
53267;SDS011;39156;51.176;6.738;2024-02-26T13:22:20;49.72;;;46.72;;
53267;SDS011;39156;51.176;6.738;2024-02-26T13:24:54;47.85;;;45.13;;
53267;SDS011;39156;51.176;6.738;2024-02-26T13:27:22;47.60;;;44.80;;
53267;SDS011;39156;51.176;6.738;2024-02-26T13:29:49;51.20;;;48.30;;
53267;SDS011;39156;51.176;6.738;2024-02-26T13:32:31;50.13;;;47.15;;
53267;SDS011;39156;51.176;6.738;2024-02-26T13:35:05;47.80;;;45.00;;
53267;SDS011;39156;51.176;6.738;2024-02-26T13:37:34;50.97;;;47.97;;
53267;SDS011;39156;51.176;6.738;2024-02-26T13:40:05;47.17;;;44.47;;
53267;SDS011;39156;51.176;6.738;2024-02-26T13:42:34;48.85;;;46.05;;
53267;SDS011;39156;51.176;6.738;2024-02-26T13:45:01;49.63;;;46.20;;
53267;SDS011;39156;51.176;6.738;2024-02-26T13:47:30;49.33;;;46.30;;
53267;SDS011;39156;51.176;6.738;2024-02-26T13:49:57;50.28;;;47.25;;
53267;SDS011;39156;51.176;6.738;2024-02-26T13:52:24;48.28;;;45.47;;
53267;SDS011;39156;51.176;6.738;2024-02-26T13:57:19;47.60;;;44.90;;
53267;SDS011;39156;51.176;6.738;2024-02-26T13:59:46;49.17;;;46.20;;
53267;SDS011;39156;51.176;6.738;2024-02-26T14:02:14;48.50;;;45.63;;
53267;SDS011;39156;51.176;6.738;2024-02-26T14:04:41;50.67;;;47.70;;
53267;SDS011;39156;51.176;6.738;2024-02-26T14:07:09;50.22;;;47.33;;
53267;SDS011;39156;51.176;6.738;2024-02-26T14:09:38;50.28;;;47.28;;
53267;SDS011;39156;51.176;6.738;2024-02-26T14:12:05;51.28;;;48.33;;
53267;SDS011;39156;51.176;6.738;2024-02-26T14:14:33;48.95;;;46.15;;
53267;SDS011;39156;51.176;6.738;2024-02-26T14:17:03;49.97;;;47.08;;
53267;SDS011;39156;51.176;6.738;2024-02-26T14:21:57;49.13;;;46.03;;
53267;SDS011;39156;51.176;6.738;2024-02-26T14:24:23;49.42;;;46.50;;
53267;SDS011;39156;51.176;6.738;2024-02-26T14:26:50;48.45;;;45.65;;
53267;SDS011;39156;51.176;6.738;2024-02-26T14:29:17;47.85;;;45.08;;
53267;SDS011;39156;51.176;6.738;2024-02-26T14:31:45;48.90;;;46.10;;
53267;SDS011;39156;51.176;6.738;2024-02-26T14:34:12;50.25;;;47.35;;
53267;SDS011;39156;51.176;6.738;2024-02-26T14:36:38;48.67;;;45.83;;
53267;SDS011;39156;51.176;6.738;2024-02-26T14:39:08;50.22;;;47.17;;
53267;SDS011;39156;51.176;6.738;2024-02-26T14:41:37;50.25;;;47.30;;
53267;SDS011;39156;51.176;6.738;2024-02-26T14:44:04;47.70;;;44.90;;
53267;SDS011;39156;51.176;6.738;2024-02-26T14:46:32;48.35;;;45.42;;
53267;SDS011;39156;51.176;6.738;2024-02-26T14:49:00;49.78;;;46.67;;
53267;SDS011;39156;51.176;6.738;2024-02-26T14:51:27;48.60;;;45.80;;
53267;SDS011;39156;51.176;6.738;2024-02-26T14:53:54;47.45;;;44.58;;
53267;SDS011;39156;51.176;6.738;2024-02-26T14:56:20;49.33;;;46.47;;
53267;SDS011;39156;51.176;6.738;2024-02-26T14:58:47;50.05;;;47.20;;
53267;SDS011;39156;51.176;6.738;2024-02-26T15:01:14;49.08;;;46.10;;
53267;SDS011;39156;51.176;6.738;2024-02-26T15:03:41;46.42;;;43.70;;
53267;SDS011;39156;51.176;6.738;2024-02-26T15:06:10;49.10;;;46.35;;